Eendracht — PDVN — position and weather

sailwx.info

Track history (hours):
 
Tides and Currents Weather Stations Pressure Air Temp Water Temp Dewpoint Dewpoint Depression Visibility Wind Speed Wind Dir Waves Ship Positions

Eendracht (Netherlands)

Last reported at 2020-Apr-02 02:30 UTC. Time now 2020-Apr-02 04:08 UTC.
Position N 51°57' E 003°36'.

Length 59 m; beam 12 m; draft 5 m.

Type: Sailing vessel. MMSI: 244543000.

Date/timePositionNaut miles runAvg speedWind from/ knotsBaromVisibWave heightAir tempDewpointWater temp
2020-Apr-02 02:30N 51°57' E 003°36'2 4.6
2020-Apr-02 01:57N 51°56' E 003°33'52 6.9
2020-Apr-01 18:30N 51°30' E 002°21'4 8.5
2020-Apr-01 18:00N 51°26' E 002°17'8 8.1
2020-Apr-01 17:00N 51°20' E 002°10'4 7.7
2020-Apr-01 16:30N 51°16' E 002°07'35 5.9
2020-Apr-01 10:30N 50°50' E 001°29'8 0.6
2020-Mar-31 21:59N 50°44' E 001°34'3 0.6
2020-Mar-31 17:53N 50°45' E 001°31'2 1.7
2020-Mar-31 16:28N 50°45' E 001°27'57 4.3
2020-Mar-31 03:05N 50°09' E 000°18'12 5.6
2020-Mar-31 01:00N 50°09' W 000°00'8 5.3
2020-Mar-30 23:30N 50°05' W 000°11'13 6.7
2020-Mar-30 21:30N 49°52' W 000°09'3 6.1
2020-Mar-30 21:00N 49°49' W 000°08'16 4.6
2020-Mar-30 17:30N 49°33' W 000°02'4 4.1
2020-Mar-30 16:30N 49°30' E 000°03'3 1.3
2020-Mar-30 14:28N 49°29' E 000°06'0 0.0
2020-Mar-30 13:58N 49°29' E 000°06'0 0.0
2020-Mar-30 11:58N 49°29' E 000°06'0 0.0
2020-Mar-30 10:28N 49°29' E 000°06'0 0.0
2020-Mar-30 08:28N 49°29' E 000°06'0 0.0
2020-Mar-30 07:58N 49°29' E 000°06'0 0.0
2020-Mar-30 05:58N 49°29' E 000°06'0 0.0
2020-Mar-30 05:28N 49°29' E 000°06'0 0.0
2020-Mar-30 04:28N 49°29' E 000°06'0 0.0
2020-Mar-30 01:58N 49°29' E 000°06'0 0.0
2020-Mar-30 01:28N 49°29' E 000°06'0 0.0
2020-Mar-29 22:28N 49°29' E 000°06'0 0.0
2020-Mar-29 21:28N 49°29' E 000°06'0 0.0
2020-Mar-29 20:28N 49°29' E 000°06'0 0.0
2020-Mar-29 19:28N 49°29' E 000°06'0 0.0
2020-Mar-29 18:58N 49°29' E 000°06'0 0.0
2020-Mar-29 17:58N 49°29' E 000°06'0 0.0
2020-Mar-29 17:28N 49°29' E 000°06'0 0.0
2020-Mar-29 16:28N 49°29' E 000°06'0 0.0
2020-Mar-29 14:30N 49°29' E 000°06'0 0.0
2020-Mar-29 13:30N 49°29' E 000°06'0 0.0
2020-Mar-29 13:00N 49°29' E 000°06'0 0.0
2020-Mar-29 12:30N 49°29' E 000°06'0 0.0
2020-Mar-29 11:30N 49°29' E 000°06'0 0.0
2020-Mar-29 09:00N 49°29' E 000°06'0 0.0
2020-Mar-29 03:30N 49°29' E 000°06'0 0.0
2020-Mar-29 02:30N 49°29' E 000°06'0 0.0
2020-Mar-29 00:00N 49°29' E 000°06'0 0.0
2020-Mar-28 23:30N 49°29' E 000°06'0 0.0
2020-Mar-28 21:00N 49°29' E 000°06'4 3.0
2020-Mar-28 19:30N 49°30' E 000°00'33 8.2
2020-Mar-28 15:31N 50°03' E 000°05'14 2.0
2020-Mar-28 08:30N 50°17' E 000°06'7 3.6
2020-Mar-28 06:30N 50°17' W 000°05'1 2.8
2020-Mar-28 05:59N 50°17' W 000°08'53 5.9
2020-Mar-27 21:01N 50°23' W 001°30'32 7.5
2020-Mar-27 16:46N 50°24' W 002°20'1 5.3
2020-Mar-27 16:30N 50°24' W 002°22'3 5.1
2020-Mar-27 15:54N 50°23' W 002°27'4 4.8
2020-Mar-27 15:00N 50°22' W 002°33'8 5.6
2020-Mar-27 13:30N 50°19' W 002°46'7 6.6
2020-Mar-27 12:30N 50°18' W 002°56'3 6.8
2020-Mar-27 12:00N 50°17' W 003°01'10 6.9
2020-Mar-27 10:30N 50°15' W 003°17'3 6.5
2020-Mar-27 10:00N 50°14' W 003°22'13 6.4
2020-Mar-27 08:00N 50°10' W 003°40'15 7.5
2020-Mar-27 06:00N 50°09' W 004°04'17 6.6
2020-Mar-27 03:28N 50°04' W 004°29'194 6.2
2020-Mar-25 20:10N 48°59' W 009°10'  
Track history (hours):
 
Tides and Currents Weather Stations Pressure Air Temp Water Temp Dewpoint Dewpoint Depression Visibility Wind Speed Wind Dir Waves Ship Positions

Eendracht (Netherlands)

Last reported at 2020-Apr-02 02:30 UTC. Time now 2020-Apr-02 04:08 UTC.
Position N 51°57' E 003°36'.

Length 59 m; beam 12 m; draft 5 m.

Type: Sailing vessel. MMSI: 244543000.

Date/timePositionNaut miles runAvg speedWind from/ knotsBaromVisibWave heightAir tempDewpointWater temp
2020-Apr-02 02:30N 51°57' E 003°36'2 4.6
2020-Apr-02 01:57N 51°56' E 003°33'52 6.9
2020-Apr-01 18:30N 51°30' E 002°21'4 8.5
2020-Apr-01 18:00N 51°26' E 002°17'8 8.1
2020-Apr-01 17:00N 51°20' E 002°10'4 7.7
2020-Apr-01 16:30N 51°16' E 002°07'35 5.9
2020-Apr-01 10:30N 50°50' E 001°29'8 0.6
2020-Mar-31 21:59N 50°44' E 001°34'3 0.6
2020-Mar-31 17:53N 50°45' E 001°31'2 1.7
2020-Mar-31 16:28N 50°45' E 001°27'57 4.3
2020-Mar-31 03:05N 50°09' E 000°18'12 5.6
2020-Mar-31 01:00N 50°09' W 000°00'8 5.3
2020-Mar-30 23:30N 50°05' W 000°11'13 6.7
2020-Mar-30 21:30N 49°52' W 000°09'3 6.1
2020-Mar-30 21:00N 49°49' W 000°08'16 4.6
2020-Mar-30 17:30N 49°33' W 000°02'4 4.1
2020-Mar-30 16:30N 49°30' E 000°03'3 1.3
2020-Mar-30 14:28N 49°29' E 000°06'0 0.0
2020-Mar-30 13:58N 49°29' E 000°06'0 0.0
2020-Mar-30 11:58N 49°29' E 000°06'0 0.0
2020-Mar-30 10:28N 49°29' E 000°06'0 0.0
2020-Mar-30 08:28N 49°29' E 000°06'0 0.0
2020-Mar-30 07:58N 49°29' E 000°06'0 0.0
2020-Mar-30 05:58N 49°29' E 000°06'0 0.0
2020-Mar-30 05:28N 49°29' E 000°06'0 0.0
2020-Mar-30 04:28N 49°29' E 000°06'0 0.0
2020-Mar-30 01:58N 49°29' E 000°06'0 0.0
2020-Mar-30 01:28N 49°29' E 000°06'0 0.0
2020-Mar-29 22:28N 49°29' E 000°06'0 0.0
2020-Mar-29 21:28N 49°29' E 000°06'0 0.0
2020-Mar-29 20:28N 49°29' E 000°06'0 0.0
2020-Mar-29 19:28N 49°29' E 000°06'0 0.0
2020-Mar-29 18:58N 49°29' E 000°06'0 0.0
2020-Mar-29 17:58N 49°29' E 000°06'0 0.0
2020-Mar-29 17:28N 49°29' E 000°06'0 0.0
2020-Mar-29 16:28N 49°29' E 000°06'0 0.0
2020-Mar-29 14:30N 49°29' E 000°06'0 0.0
2020-Mar-29 13:30N 49°29' E 000°06'0 0.0
2020-Mar-29 13:00N 49°29' E 000°06'0 0.0
2020-Mar-29 12:30N 49°29' E 000°06'0 0.0
2020-Mar-29 11:30N 49°29' E 000°06'0 0.0
2020-Mar-29 09:00N 49°29' E 000°06'0 0.0
2020-Mar-29 03:30N 49°29' E 000°06'0 0.0
2020-Mar-29 02:30N 49°29' E 000°06'0 0.0
2020-Mar-29 00:00N 49°29' E 000°06'0 0.0
2020-Mar-28 23:30N 49°29' E 000°06'0 0.0
2020-Mar-28 21:00N 49°29' E 000°06'4 3.0
2020-Mar-28 19:30N 49°30' E 000°00'33 8.2
2020-Mar-28 15:31N 50°03' E 000°05'14 2.0
2020-Mar-28 08:30N 50°17' E 000°06'7 3.6
2020-Mar-28 06:30N 50°17' W 000°05'1 2.8
2020-Mar-28 05:59N 50°17' W 000°08'53 5.9
2020-Mar-27 21:01N 50°23' W 001°30'32 7.5
2020-Mar-27 16:46N 50°24' W 002°20'1 5.3
2020-Mar-27 16:30N 50°24' W 002°22'3 5.1
2020-Mar-27 15:54N 50°23' W 002°27'4 4.8
2020-Mar-27 15:00N 50°22' W 002°33'8 5.6
2020-Mar-27 13:30N 50°19' W 002°46'7 6.6
2020-Mar-27 12:30N 50°18' W 002°56'3 6.8
2020-Mar-27 12:00N 50°17' W 003°01'10 6.9
2020-Mar-27 10:30N 50°15' W 003°17'3 6.5
2020-Mar-27 10:00N 50°14' W 003°22'13 6.4
2020-Mar-27 08:00N 50°10' W 003°40'15 7.5
2020-Mar-27 06:00N 50°09' W 004°04'17 6.6
2020-Mar-27 03:28N 50°04' W 004°29'194 6.2
2020-Mar-25 20:10N 48°59' W 009°10'  

Dump ship's entire track history